Time;durP1;ratioP1;P1;durP2;ratioP2;P2;SDS_P1;SDS_P2;PMS_P1;PMS_P2;Temp;Humidity;BMP_temperature;BMP_pressure;BME280_temperature;BME280_humidity;BME280_pressure;Samples;Min_cycle;Max_cycle;Signal;HPM_P1;HPM_P2
2023/08/08 00:00:18;;;;;;;4.63;2.08;;;12.40;99.90;;;;;;5053700;28;20357;-69
2023/08/08 00:02:43;;;;;;;7.85;2.10;;;12.40;99.90;;;;;;5053932;28;20017;-69
2023/08/08 00:05:09;;;;;;;4.28;2.33;;;12.40;99.90;;;;;;5053652;28;20412;-69
2023/08/08 00:07:35;;;;;;;7.13;2.28;;;12.40;99.90;;;;;;5052737;28;20108;-69
2023/08/08 00:10:00;;;;;;;5.68;2.22;;;12.30;99.90;;;;;;5054149;28;20438;-69
2023/08/08 00:12:26;;;;;;;3.80;2.28;;;12.30;99.90;;;;;;5053295;28;20083;-69
2023/08/08 00:14:52;;;;;;;5.90;2.65;;;12.20;99.90;;;;;;5053218;28;20082;-69
2023/08/08 00:17:17;;;;;;;5.88;2.30;;;12.20;99.90;;;;;;5053439;28;20029;-69
2023/08/08 00:19:43;;;;;;;4.35;2.50;;;12.20;99.90;;;;;;5053250;28;20033;-69
2023/08/08 00:22:09;;;;;;;4.47;2.15;;;12.10;99.90;;;;;;5053244;28;20021;-69
2023/08/08 00:24:35;;;;;;;7.60;2.50;;;12.20;99.90;;;;;;5053449;28;20024;-70
2023/08/08 00:27:00;;;;;;;4.20;2.20;;;12.20;99.90;;;;;;5053716;28;20060;-69
2023/08/08 00:29:26;;;;;;;5.30;2.10;;;12.20;99.90;;;;;;5053925;28;20103;-69
2023/08/08 00:31:51;;;;;;;4.68;2.20;;;12.10;99.90;;;;;;5057535;28;20028;-69
2023/08/08 00:34:17;;;;;;;4.25;2.55;;;12.00;99.90;;;;;;5057798;28;20024;-69
2023/08/08 00:36:43;;;;;;;3.95;2.55;;;12.00;99.90;;;;;;5057268;28;20028;-69
2023/08/08 00:39:08;;;;;;;5.07;1.95;;;11.90;99.90;;;;;;5057387;28;20031;-69
2023/08/08 00:41:34;;;;;;;4.15;2.28;;;11.90;99.90;;;;;;5057379;28;20027;-69
2023/08/08 00:44:00;;;;;;;6.18;2.22;;;11.90;99.90;;;;;;5057289;28;20021;-69
2023/08/08 00:46:25;;;;;;;6.13;2.08;;;11.90;99.90;;;;;;5057498;28;20422;-69
2023/08/08 00:48:52;;;;;;;5.32;2.38;;;11.90;99.90;;;;;;5057559;28;20051;-69
2023/08/08 00:51:19;;;;;;;6.63;2.30;;;11.90;99.90;;;;;;5057150;28;20052;-69
2023/08/08 00:53:45;;;;;;;4.50;2.20;;;11.90;99.90;;;;;;5056231;28;20480;-69
2023/08/08 00:56:16;;;;;;;6.35;2.40;;;11.80;99.90;;;;;;5057511;28;20025;-69
2023/08/08 00:58:45;;;;;;;6.75;2.25;;;11.70;99.90;;;;;;5056786;28;20036;-69
2023/08/08 01:01:11;;;;;;;6.97;2.38;;;11.70;99.90;;;;;;5056929;28;20449;-69
2023/08/08 01:03:37;;;;;;;3.75;2.30;;;11.70;99.90;;;;;;5056968;28;20021;-69
2023/08/08 01:06:12;;;;;;;9.15;2.55;;;11.70;99.90;;;;;;5056894;28;20492;-69
2023/08/08 01:09:00;;;;;;;7.32;2.40;;;11.80;99.90;;;;;;5057686;28;20108;-69
2023/08/08 01:11:29;;;;;;;9.40;2.40;;;11.80;99.90;;;;;;5057118;28;20013;-69
2023/08/08 01:13:55;;;;;;;3.97;2.15;;;11.80;99.90;;;;;;5056705;28;20029;-70
2023/08/08 01:16:23;;;;;;;5.40;2.45;;;11.90;99.90;;;;;;5056585;28;20029;-70
2023/08/08 01:18:49;;;;;;;3.65;2.20;;;12.00;99.90;;;;;;5056886;28;20041;-70
2023/08/08 01:21:16;;;;;;;7.40;2.55;;;12.00;99.90;;;;;;5056590;28;20080;-70
2023/08/08 01:24:03;;;;;;;5.50;2.63;;;12.00;99.90;;;;;;5056534;28;20464;-70
2023/08/08 01:26:29;;;;;;;5.32;2.45;;;12.00;99.90;;;;;;5057115;28;20528;-70
2023/08/08 01:28:55;;;;;;;4.22;2.30;;;12.00;99.90;;;;;;5056717;28;20117;-70
2023/08/08 01:31:21;;;;;;;5.95;2.30;;;12.00;99.90;;;;;;5056383;28;20029;-70
2023/08/08 01:33:47;;;;;;;4.50;2.25;;;12.00;99.90;;;;;;5056889;28;20425;-70
2023/08/08 01:36:30;;;;;;;4.47;2.30;;;12.00;99.90;;;;;;5056299;28;20021;-70
2023/08/08 01:39:03;;;;;;;4.70;2.53;;;12.10;99.90;;;;;;5056030;28;20035;-70
2023/08/08 01:41:32;;;;;;;3.28;2.05;;;12.10;99.90;;;;;;5056003;28;20039;-70
2023/08/08 01:43:58;;;;;;;3.70;2.22;;;12.10;99.90;;;;;;5056142;28;20021;-70
2023/08/08 01:46:25;;;;;;;5.45;2.45;;;12.10;99.90;;;;;;5056408;28;20021;-70
2023/08/08 01:48:50;;;;;;;4.75;2.10;;;12.10;99.90;;;;;;5055885;28;20047;-70
2023/08/08 01:51:16;;;;;;;5.45;2.42;;;12.10;99.90;;;;;;5056320;28;20025;-69
2023/08/08 01:53:42;;;;;;;4.88;2.22;;;12.00;99.90;;;;;;5055706;28;20112;-70
2023/08/08 01:56:08;;;;;;;7.18;2.13;;;12.00;99.90;;;;;;5056369;28;20036;-70
2023/08/08 01:58:33;;;;;;;8.43;2.28;;;12.00;99.90;;;;;;5055873;28;20056;-69
2023/08/08 02:00:59;;;;;;;5.53;2.20;;;11.90;99.90;;;;;;5055848;28;20412;-70
2023/08/08 02:03:25;;;;;;;6.40;2.20;;;12.00;99.90;;;;;;5056066;28;20025;-69
2023/08/08 02:05:50;;;;;;;3.60;2.10;;;11.90;99.90;;;;;;5055444;28;20028;-70
2023/08/08 02:08:16;;;;;;;5.82;2.63;;;11.90;99.90;;;;;;5055752;28;20420;-69
2023/08/08 02:10:42;;;;;;;3.92;2.35;;;11.90;99.90;;;;;;5055607;28;20059;-69
2023/08/08 02:13:07;;;;;;;5.00;2.30;;;12.00;99.90;;;;;;5055826;28;20430;-70
2023/08/08 02:15:33;;;;;;;3.65;2.40;;;12.00;99.90;;;;;;5055718;28;20108;-69
2023/08/08 02:17:59;;;;;;;6.50;2.35;;;11.90;99.90;;;;;;5055802;28;20025;-70
2023/08/08 02:20:25;;;;;;;4.50;2.20;;;12.00;99.90;;;;;;5055965;28;20041;-69
2023/08/08 02:22:51;;;;;;;4.38;2.20;;;12.00;99.90;;;;;;5055375;28;20449;-69
2023/08/08 02:25:16;;;;;;;3.47;2.33;;;12.10;99.90;;;;;;5055334;28;20032;-69
2023/08/08 02:27:42;;;;;;;5.03;2.60;;;12.10;99.90;;;;;;5055579;28;20356;-69
2023/08/08 02:30:08;;;;;;;4.65;2.53;;;12.10;99.90;;;;;;5055228;28;20028;-69
2023/08/08 02:32:34;;;;;;;8.10;3.40;;;12.10;99.90;;;;;;5055210;28;20098;-70
2023/08/08 02:34:59;;;;;;;3.60;2.13;;;12.10;99.90;;;;;;5055108;28;21971;-70
2023/08/08 02:37:25;;;;;;;4.78;2.38;;;12.20;99.90;;;;;;5055367;28;20442;-69
2023/08/08 02:39:51;;;;;;;5.22;2.38;;;12.20;99.90;;;;;;5055246;28;20021;-69
2023/08/08 02:42:16;;;;;;;5.28;2.45;;;12.30;99.90;;;;;;5055297;28;20433;-69
2023/08/08 02:44:42;;;;;;;8.43;2.70;;;12.30;99.90;;;;;;5055156;28;20354;-69
2023/08/08 02:47:07;;;;;;;5.65;2.20;;;12.30;99.90;;;;;;5054956;28;20024;-69
2023/08/08 02:49:33;;;;;;;3.47;2.15;;;12.30;99.90;;;;;;5054674;28;20051;-69
2023/08/08 02:52:00;;;;;;;7.40;2.30;;;12.30;99.90;;;;;;5054785;28;20031;-69
2023/08/08 02:54:26;;;;;;;6.05;2.38;;;12.40;99.90;;;;;;5054613;28;20488;-69
2023/08/08 02:56:51;;;;;;;8.45;2.25;;;12.40;99.90;;;;;;5054925;28;20024;-69
2023/08/08 02:59:18;;;;;;;4.85;2.25;;;12.40;99.90;;;;;;5054665;28;20461;-70
2023/08/08 03:01:44;;;;;;;9.25;2.45;;;12.40;99.90;;;;;;5054613;28;20025;-70
2023/08/08 03:04:09;;;;;;;4.90;2.40;;;12.40;99.90;;;;;;5054570;28;20112;-69
2023/08/08 03:06:35;;;;;;;5.15;2.10;;;12.40;99.90;;;;;;5054547;28;20066;-69
2023/08/08 03:09:01;;;;;;;3.83;1.98;;;12.40;99.90;;;;;;5054213;28;20029;-69
2023/08/08 03:11:26;;;;;;;4.35;2.35;;;12.40;99.90;;;;;;5054424;28;20430;-69
2023/08/08 03:13:52;;;;;;;4.40;2.50;;;12.40;99.90;;;;;;5054465;28;20024;-69
2023/08/08 03:16:18;;;;;;;7.55;2.63;;;12.40;99.90;;;;;;5054428;28;20033;-69
2023/08/08 03:18:43;;;;;;;4.45;2.60;;;12.40;99.90;;;;;;5054595;28;20048;-69
2023/08/08 03:21:09;;;;;;;7.30;2.00;;;12.30;99.90;;;;;;5054319;28;20033;-69
2023/08/08 03:23:34;;;;;;;8.65;2.63;;;12.30;99.90;;;;;;5054487;28;20457;-69
2023/08/08 03:26:00;;;;;;;5.78;2.20;;;12.20;99.90;;;;;;5054486;28;20027;-69
2023/08/08 03:28:26;;;;;;;5.80;2.20;;;12.20;99.90;;;;;;5054217;28;20468;-69
2023/08/08 03:30:51;;;;;;;4.85;2.38;;;12.20;99.90;;;;;;5054664;28;20457;-69
2023/08/08 03:33:17;;;;;;;5.20;2.60;;;12.20;99.90;;;;;;5054344;28;20071;-69
2023/08/08 03:35:43;;;;;;;3.42;2.15;;;12.20;99.90;;;;;;5053911;28;20070;-69
2023/08/08 03:38:09;;;;;;;7.30;2.55;;;12.20;99.90;;;;;;5054219;28;20025;-69
2023/08/08 03:40:35;;;;;;;3.38;2.15;;;12.20;99.90;;;;;;5053944;28;20017;-69
2023/08/08 03:43:00;;;;;;;4.85;2.00;;;12.20;99.90;;;;;;5053887;28;20032;-69
2023/08/08 03:45:26;;;;;;;5.70;2.65;;;12.20;99.90;;;;;;5053656;28;20028;-69
2023/08/08 03:47:52;;;;;;;5.25;2.05;;;12.20;99.90;;;;;;5053993;28;20056;-69
2023/08/08 03:50:18;;;;;;;5.38;2.22;;;12.20;99.90;;;;;;5054407;28;20033;-69
2023/08/08 03:52:44;;;;;;;4.68;2.25;;;12.20;99.90;;;;;;5053801;28;20365;-69
2023/08/08 03:55:09;;;;;;;4.57;2.70;;;12.30;99.90;;;;;;5054021;28;20021;-69
2023/08/08 03:57:35;;;;;;;6.10;2.30;;;12.30;99.90;;;;;;5053490;28;20110;-69
2023/08/08 04:00:01;;;;;;;6.00;2.40;;;12.20;99.90;;;;;;5053738;28;20024;-71
2023/08/08 04:02:28;;;;;;;5.80;2.40;;;12.20;99.90;;;;;;5053905;28;20037;-70
2023/08/08 04:04:53;;;;;;;4.78;2.60;;;12.20;99.90;;;;;;5052991;28;20029;-71
2023/08/08 04:07:19;;;;;;;5.53;2.28;;;12.20;99.90;;;;;;5053374;28;20025;-71
2023/08/08 04:09:45;;;;;;;5.15;2.38;;;12.10;99.90;;;;;;5053857;28;20027;-71
2023/08/08 04:12:10;;;;;;;5.38;2.33;;;12.10;99.90;;;;;;5053523;28;20408;-68
2023/08/08 04:14:36;;;;;;;4.05;2.00;;;12.10;99.90;;;;;;5052290;28;20021;-69
2023/08/08 04:17:02;;;;;;;5.05;2.63;;;12.00;99.90;;;;;;5053209;28;20105;-71
2023/08/08 04:19:28;;;;;;;4.55;2.30;;;12.00;99.90;;;;;;5053903;28;20037;-70
2023/08/08 04:21:54;;;;;;;5.88;2.35;;;12.00;99.90;;;;;;5053510;28;20125;-70
2023/08/08 04:24:19;;;;;;;4.55;2.38;;;12.10;99.90;;;;;;5053503;28;20022;-71
2023/08/08 04:26:45;;;;;;;7.97;1.98;;;12.10;99.90;;;;;;5053185;28;20025;-71
2023/08/08 04:29:10;;;;;;;3.17;1.92;;;12.10;99.90;;;;;;5053433;28;20033;-71
2023/08/08 04:31:36;;;;;;;4.63;2.30;;;12.10;99.90;;;;;;5053210;28;20052;-70
2023/08/08 04:34:02;;;;;;;3.63;2.03;;;12.10;99.90;;;;;;5053692;28;20056;-70
2023/08/08 04:36:28;;;;;;;8.45;2.38;;;12.20;99.90;;;;;;5053310;28;20446;-70
2023/08/08 04:38:54;;;;;;;5.35;2.13;;;12.30;99.90;;;;;;5053351;28;20112;-70
2023/08/08 04:41:19;;;;;;;3.70;2.15;;;12.30;99.90;;;;;;5053609;28;20452;-70
2023/08/08 04:43:45;;;;;;;4.95;2.20;;;12.40;99.90;;;;;;5053215;28;20070;-69
2023/08/08 04:46:12;;;;;;;4.45;2.13;;;12.50;99.90;;;;;;5053454;28;20025;-70
2023/08/08 04:48:37;;;;;;;8.00;2.20;;;12.50;99.90;;;;;;5053053;28;20113;-69
2023/08/08 04:51:06;;;;;;;3.60;2.22;;;12.60;99.90;;;;;;5053088;28;20035;-69
2023/08/08 04:53:32;;;;;;;4.20;2.10;;;12.70;99.90;;;;;;5053309;28;20211;-69
2023/08/08 04:55:58;;;;;;;6.35;2.00;;;12.80;99.90;;;;;;5052970;28;20474;-68
2023/08/08 04:58:24;;;;;;;4.07;1.92;;;12.90;99.90;;;;;;5053805;28;20028;-68
2023/08/08 05:00:50;;;;;;;4.00;1.95;;;12.90;99.90;;;;;;5052963;28;20058;-69
2023/08/08 05:03:16;;;;;;;5.68;2.00;;;12.90;99.90;;;;;;5052888;28;20025;-70
2023/08/08 05:05:44;;;;;;;5.05;2.08;;;12.80;99.90;;;;;;5053247;28;20455;-69
2023/08/08 05:08:11;;;;;;;5.25;2.03;;;12.80;99.90;;;;;;5051748;28;20029;-69
2023/08/08 05:10:36;;;;;;;7.28;1.95;;;12.80;99.90;;;;;;5053456;28;20032;-69
2023/08/08 05:13:03;;;;;;;3.53;2.05;;;12.90;99.90;;;;;;5052494;28;20025;-70
2023/08/08 05:15:29;;;;;;;3.92;1.80;;;12.90;99.90;;;;;;5053354;28;20029;-70
2023/08/08 05:17:55;;;;;;;5.63;2.28;;;13.00;99.90;;;;;;5056601;28;20028;-70
2023/08/08 05:20:21;;;;;;;6.10;2.15;;;13.00;99.90;;;;;;5056479;28;20029;-70
2023/08/08 05:22:47;;;;;;;8.68;1.80;;;13.10;99.90;;;;;;5056770;28;20025;-70
2023/08/08 05:25:13;;;;;;;4.45;2.08;;;13.00;99.90;;;;;;5056305;28;20032;-71
2023/08/08 05:27:39;;;;;;;6.90;2.00;;;13.00;99.90;;;;;;5056598;28;20456;-70
2023/08/08 05:30:05;;;;;;;4.05;2.00;;;13.10;99.90;;;;;;5054995;28;20049;-71
2023/08/08 05:32:31;;;;;;;5.18;2.38;;;13.10;99.90;;;;;;5056262;28;20044;-70
2023/08/08 05:34:57;;;;;;;4.57;2.30;;;13.10;99.90;;;;;;5056124;28;20020;-70
2023/08/08 05:37:26;;;;;;;4.68;2.15;;;13.00;99.90;;;;;;5056084;28;20021;-68
2023/08/08 05:39:53;;;;;;;5.10;2.38;;;13.00;99.90;;;;;;5054685;28;20025;-69
2023/08/08 05:42:19;;;;;;;4.15;1.92;;;12.90;99.90;;;;;;5056073;28;20024;-67
2023/08/08 05:44:44;;;;;;;4.03;1.90;;;13.00;99.90;;;;;;5055937;28;20022;-67
2023/08/08 05:47:11;;;;;;;4.00;1.83;;;13.00;99.90;;;;;;5055637;28;20102;-67
2023/08/08 05:49:37;;;;;;;3.67;2.03;;;13.10;99.90;;;;;;5056372;28;20081;-69
2023/08/08 05:52:03;;;;;;;9.52;2.20;;;13.10;99.90;;;;;;5055564;28;20024;-67
2023/08/08 05:54:29;;;;;;;3.65;2.22;;;13.10;99.90;;;;;;5055725;28;20017;-67
2023/08/08 05:56:54;;;;;;;2.63;1.67;;;13.10;99.90;;;;;;5055656;28;20025;-68
2023/08/08 05:59:20;;;;;;;2.88;1.70;;;13.20;99.90;;;;;;5055681;28;20025;-69
2023/08/08 06:01:50;;;;;;;4.43;2.00;;;13.30;99.90;;;;;;5055903;28;20071;-67
2023/08/08 06:04:15;;;;;;;4.50;1.95;;;13.40;99.90;;;;;;5056437;28;20362;-67
2023/08/08 06:06:41;;;;;;;4.75;1.70;;;13.40;99.90;;;;;;5056342;28;20024;-66
2023/08/08 06:09:08;;;;;;;4.65;1.90;;;13.50;99.90;;;;;;5055569;28;20025;-67
2023/08/08 06:11:34;;;;;;;5.85;1.85;;;13.60;99.90;;;;;;5055565;28;20074;-67
2023/08/08 06:14:00;;;;;;;4.50;2.20;;;13.60;99.90;;;;;;5055403;28;20017;-67
2023/08/08 06:16:25;;;;;;;3.50;1.98;;;13.70;99.90;;;;;;5055544;28;20441;-67
2023/08/08 06:18:52;;;;;;;4.30;2.10;;;13.80;99.90;;;;;;5055738;28;20044;-68
2023/08/08 06:21:18;;;;;;;7.15;1.92;;;13.90;99.90;;;;;;5055206;28;20024;-68
2023/08/08 06:23:43;;;;;;;4.97;2.08;;;13.90;99.90;;;;;;5055207;28;20043;-67
2023/08/08 06:26:12;;;;;;;3.10;1.90;;;13.90;99.90;;;;;;5055064;28;20098;-67
2023/08/08 06:28:38;;;;;;;7.22;2.00;;;14.00;99.90;;;;;;5053292;28;20017;-67
2023/08/08 06:31:03;;;;;;;4.75;2.10;;;14.10;99.90;;;;;;5055053;28;20074;-67
2023/08/08 06:33:29;;;;;;;3.80;2.03;;;14.10;99.90;;;;;;5054997;28;20072;-66
2023/08/08 06:35:56;;;;;;;7.22;1.92;;;14.20;99.90;;;;;;5054867;28;20586;-67
2023/08/08 06:38:22;;;;;;;3.45;2.00;;;14.20;99.90;;;;;;5054747;28;20028;-68
2023/08/08 06:40:47;;;;;;;5.30;2.08;;;14.30;99.90;;;;;;5054734;28;20028;-68
2023/08/08 06:43:13;;;;;;;6.47;2.30;;;14.40;99.90;;;;;;5054873;28;20104;-68
2023/08/08 06:45:39;;;;;;;3.40;1.80;;;14.50;99.90;;;;;;5054882;28;20025;-66
2023/08/08 06:48:05;;;;;;;6.28;2.15;;;14.50;99.90;;;;;;5054881;28;20482;-66
2023/08/08 06:50:31;;;;;;;5.85;2.22;;;14.70;99.90;;;;;;5055427;28;20029;-68
2023/08/08 06:52:57;;;;;;;4.32;2.17;;;14.90;99.90;;;;;;5055262;28;20480;-67
2023/08/08 06:55:22;;;;;;;3.53;1.95;;;15.00;99.90;;;;;;5055125;28;20342;-67
2023/08/08 06:57:48;;;;;;;6.35;1.85;;;15.10;99.90;;;;;;5055180;28;20515;-66
2023/08/08 07:00:16;;;;;;;4.63;2.08;;;15.00;99.90;;;;;;5053338;28;20115;-67
2023/08/08 07:02:41;;;;;;;4.43;2.08;;;15.10;99.90;;;;;;5054452;28;20108;-67
2023/08/08 07:05:07;;;;;;;5.38;2.28;;;15.10;99.90;;;;;;5055050;28;20417;-69
2023/08/08 07:07:33;;;;;;;5.75;2.08;;;15.30;99.90;;;;;;5054441;28;20032;-68
2023/08/08 07:09:59;;;;;;;2.83;1.50;;;15.40;99.90;;;;;;5054675;28;20021;-68
2023/08/08 07:12:25;;;;;;;3.45;2.13;;;15.50;99.90;;;;;;5054649;28;20067;-69
2023/08/08 07:14:50;;;;;;;9.40;2.28;;;15.60;99.90;;;;;;5054892;28;20196;-67
2023/08/08 07:17:16;;;;;;;3.65;2.20;;;15.60;99.90;;;;;;5053806;28;20033;-68
2023/08/08 07:19:42;;;;;;;3.17;1.73;;;15.70;99.90;;;;;;5054125;28;20111;-67
2023/08/08 07:22:08;;;;;;;6.03;1.70;;;15.80;99.90;;;;;;5053855;28;20044;-68
2023/08/08 07:24:34;;;;;;;5.00;1.88;;;15.80;99.90;;;;;;5054110;28;20108;-66
2023/08/08 07:27:00;;;;;;;6.60;1.92;;;15.80;99.90;;;;;;5054173;28;20033;-66
2023/08/08 07:29:26;;;;;;;7.68;2.13;;;15.80;99.90;;;;;;5053970;28;20083;-70
2023/08/08 07:31:53;;;;;;;7.50;1.80;;;16.00;99.90;;;;;;5053976;28;20446;-69
2023/08/08 07:34:19;;;;;;;5.22;1.83;;;16.00;99.90;;;;;;5054545;28;20036;-70
2023/08/08 07:36:46;;;;;;;3.95;2.00;;;16.00;99.90;;;;;;5053754;28;20368;-70
2023/08/08 07:39:12;;;;;;;5.28;2.03;;;16.00;99.90;;;;;;5052748;28;20536;-69
2023/08/08 07:41:37;;;;;;;4.25;1.83;;;16.00;99.90;;;;;;5053773;28;20104;-69
2023/08/08 07:44:04;;;;;;;2.38;1.73;;;16.20;99.90;;;;;;5036378;28;20342;-69
2023/08/08 07:46:30;;;;;;;3.25;1.80;;;16.30;99.90;;;;;;5053749;28;20373;-69
2023/08/08 07:48:59;;;;;;;3.30;1.83;;;16.30;99.90;;;;;;5053772;28;20045;-69
2023/08/08 07:51:25;;;;;;;3.10;1.58;;;16.40;99.90;;;;;;5053660;28;20028;-69
2023/08/08 07:53:50;;;;;;;3.13;1.58;;;16.40;99.90;;;;;;5053356;28;20021;-68
2023/08/08 07:56:16;;;;;;;6.88;1.95;;;16.50;99.90;;;;;;5052212;28;20441;-69
2023/08/08 07:58:41;;;;;;;4.35;1.73;;;16.50;99.90;;;;;;5053822;28;20029;-69
2023/08/08 08:01:07;;;;;;;4.80;1.67;;;16.50;99.90;;;;;;5053590;28;20017;-69
2023/08/08 08:03:33;;;;;;;3.60;1.85;;;16.50;99.90;;;;;;5053470;28;20166;-68
2023/08/08 08:05:59;;;;;;;2.80;1.40;;;16.50;99.90;;;;;;5053432;28;20120;-69
2023/08/08 08:08:24;;;;;;;3.83;1.58;;;16.70;99.90;;;;;;5053497;28;20032;-69
2023/08/08 08:10:51;;;;;;;5.60;1.50;;;16.80;99.90;;;;;;5053439;28;20025;-68
2023/08/08 08:13:17;;;;;;;3.95;1.40;;;16.70;99.90;;;;;;5053472;28;20070;-68
2023/08/08 08:15:43;;;;;;;4.30;1.70;;;16.80;99.90;;;;;;5053499;28;20037;-69
2023/08/08 08:18:09;;;;;;;4.03;1.80;;;17.00;99.90;;;;;;5053524;28;20036;-71
2023/08/08 08:20:35;;;;;;;3.10;1.52;;;17.00;99.90;;;;;;5053247;28;20029;-69
2023/08/08 08:23:00;;;;;;;4.95;1.80;;;17.00;99.90;;;;;;5053286;28;20021;-68
2023/08/08 08:25:26;;;;;;;3.75;1.40;;;17.10;99.90;;;;;;5053207;28;20032;-68
2023/08/08 08:27:52;;;;;;;4.82;1.40;;;17.10;99.90;;;;;;5053260;28;20020;-70
2023/08/08 08:30:18;;;;;;;4.63;1.38;;;17.00;99.90;;;;;;5053128;28;20342;-69
2023/08/08 08:32:44;;;;;;;9.18;1.80;;;17.10;99.90;;;;;;5053485;28;20031;-70
2023/08/08 08:35:12;;;;;;;3.00;1.45;;;17.20;99.90;;;;;;5053141;28;20021;-69
2023/08/08 08:37:38;;;;;;;5.18;1.83;;;17.40;99.90;;;;;;5053088;28;20154;-70
2023/08/08 08:40:04;;;;;;;3.38;1.70;;;17.10;99.90;;;;;;5053018;28;20048;-70
2023/08/08 08:42:33;;;;;;;7.43;2.03;;;17.00;99.90;;;;;;5053471;28;20090;-68
2023/08/08 08:44:59;;;;;;;5.57;1.70;;;17.20;99.90;;;;;;5052953;28;20083;-67
2023/08/08 08:47:29;;;;;;;5.13;1.80;;;17.20;99.90;;;;;;5052932;28;20025;-69
2023/08/08 08:49:55;;;;;;;;;;;17.30;99.90;;;;;;5053040;28;20137;-68
2023/08/08 08:52:22;;;;;;;5.15;1.75;;;17.20;99.90;;;;;;5056585;28;20340;-66
2023/08/08 08:54:48;;;;;;;4.20;1.70;;;17.10;99.90;;;;;;5056914;28;20021;-67
2023/08/08 08:57:15;;;;;;;3.28;1.80;;;17.10;99.90;;;;;;5056634;28;20028;-69
2023/08/08 08:59:41;;;;;;;7.00;1.90;;;17.20;99.90;;;;;;5057131;28;20088;-68
2023/08/08 09:02:07;;;;;;;3.60;1.98;;;17.20;99.90;;;;;;5057081;28;20105;-69
2023/08/08 09:04:37;;;;;;;7.53;1.92;;;17.30;99.90;;;;;;5057663;28;20024;-70
2023/08/08 09:07:06;;;;;;;4.82;1.80;;;17.20;99.90;;;;;;5057068;28;20025;-70
2023/08/08 09:09:36;;;;;;;4.93;1.80;;;17.40;99.90;;;;;;5056666;28;20032;-68
2023/08/08 09:12:04;;;;;;;6.97;1.95;;;17.60;99.90;;;;;;5056610;28;20021;-68
2023/08/08 09:14:30;;;;;;;3.67;2.00;;;17.80;99.90;;;;;;5056514;28;20044;-68
2023/08/08 09:16:57;;;;;;;4.35;2.13;;;17.90;99.90;;;;;;5056671;28;20436;-67
2023/08/08 09:19:23;;;;;;;3.88;1.98;;;18.00;99.90;;;;;;5057070;28;20024;-69
2023/08/08 09:21:50;;;;;;;6.65;2.08;;;17.90;99.90;;;;;;5056824;28;20033;-68
2023/08/08 09:24:17;;;;;;;4.85;2.00;;;17.80;99.90;;;;;;5056311;28;20025;-71
2023/08/08 09:26:44;;;;;;;10.68;2.08;;;17.70;99.90;;;;;;5056370;28;20020;-71
2023/08/08 09:29:12;;;;;;;6.32;2.15;;;17.80;99.90;;;;;;5056246;28;20020;-71
2023/08/08 09:31:39;;;;;;;5.78;1.90;;;18.00;99.90;;;;;;5056489;28;20021;-71
2023/08/08 09:34:05;;;;;;;3.38;1.80;;;18.20;99.90;;;;;;5056142;28;20017;-70
2023/08/08 09:36:33;;;;;;;5.75;2.00;;;18.30;99.90;;;;;;5056067;28;20056;-71
2023/08/08 09:38:59;;;;;;;7.00;2.03;;;18.20;99.90;;;;;;5056023;28;20515;-78
2023/08/08 09:41:26;;;;;;;6.95;1.90;;;18.10;99.90;;;;;;5056003;28;20103;-70
2023/08/08 09:43:53;;;;;;;5.13;1.98;;;17.90;99.90;;;;;;5056515;28;20032;-69
2023/08/08 09:46:19;;;;;;;4.55;1.90;;;17.90;99.90;;;;;;5056001;28;20048;-71
2023/08/08 09:48:46;;;;;;;4.25;1.60;;;17.80;99.90;;;;;;5055921;28;20049;-69
2023/08/08 09:51:13;;;;;;;4.50;2.00;;;17.80;99.90;;;;;;5055806;28;20036;-72
2023/08/08 09:53:40;;;;;;;5.15;2.10;;;17.70;99.90;;;;;;5055896;28;20025;-69
2023/08/08 09:56:07;;;;;;;7.60;1.77;;;17.70;99.90;;;;;;5055715;28;20445;-68
2023/08/08 09:58:33;;;;;;;5.45;1.77;;;17.80;99.90;;;;;;5055663;28;20064;-69
2023/08/08 10:00:59;;;;;;;4.05;1.63;;;17.90;99.90;;;;;;5055480;28;20029;-71
2023/08/08 10:03:26;;;;;;;4.78;1.65;;;17.90;99.90;;;;;;5054699;28;20025;-68
2023/08/08 10:05:52;;;;;;;3.95;1.83;;;18.00;99.90;;;;;;5056084;28;20033;-68
2023/08/08 10:08:18;;;;;;;4.00;1.92;;;18.20;99.90;;;;;;5055830;28;20019;-68
2023/08/08 10:10:48;;;;;;;5.85;1.92;;;18.30;99.90;;;;;;5055225;28;20358;-68
2023/08/08 10:13:22;;;;;;;4.93;1.80;;;18.40;99.90;;;;;;5055913;28;20021;-68
2023/08/08 10:15:48;;;;;;;4.68;1.98;;;18.50;99.90;;;;;;5055467;28;20029;-67
2023/08/08 10:18:15;;;;;;;2.53;1.50;;;18.50;99.90;;;;;;5055510;28;20446;-68
2023/08/08 10:20:47;;;;;;;6.45;1.92;;;18.50;99.90;;;;;;5055794;28;20097;-67
2023/08/08 10:23:20;;;;;;;5.53;2.08;;;18.60;99.90;;;;;;5055847;28;20028;-68
2023/08/08 10:25:53;;;;;;;3.35;1.83;;;18.50;99.90;;;;;;5055100;28;20024;-68
2023/08/08 10:28:21;;;;;;;3.88;1.70;;;18.50;99.90;;;;;;5055230;28;20025;-69
2023/08/08 10:30:50;;;;;;;2.60;1.45;;;18.70;99.90;;;;;;5053906;28;20358;-69
2023/08/08 10:33:22;;;;;;;3.90;1.80;;;18.70;99.90;;;;;;5055613;28;20040;-70
2023/08/08 10:36:06;;;;;;;3.00;1.88;;;18.90;99.90;;;;;;5054706;28;20032;-71
2023/08/08 10:38:50;;;;;;;3.22;1.60;;;19.30;99.90;;;;;;5055332;28;20115;-71
2023/08/08 10:41:21;;;;;;;5.57;2.13;;;19.40;99.90;;;;;;5054844;28;20025;-70
2023/08/08 10:43:57;;;;;;;3.13;1.73;;;19.30;99.90;;;;;;5054956;28;20063;-71
2023/08/08 10:46:27;;;;;;;8.27;1.80;;;19.40;99.90;;;;;;5055434;28;20407;-70
2023/08/08 10:49:01;;;;;;;6.22;1.92;;;19.30;99.90;;;;;;5054350;28;20048;-72
2023/08/08 10:51:37;;;;;;;4.70;1.83;;;19.30;99.90;;;;;;5054683;28;20112;-71
2023/08/08 10:54:11;;;;;;;3.40;2.00;;;19.30;99.90;;;;;;5053360;28;20025;-70
2023/08/08 10:56:40;;;;;;;5.40;2.00;;;19.20;99.90;;;;;;5054652;28;20036;-71
2023/08/08 10:59:18;;;;;;;2.67;1.60;;;18.90;99.90;;;;;;5054451;28;20029;-74
2023/08/08 11:01:51;;;;;;;2.55;1.52;;;18.90;99.90;;;;;;5054552;28;20124;-71
2023/08/08 11:04:36;;;;;;;3.78;1.30;;;19.00;99.90;;;;;;5054613;28;20446;-70
2023/08/08 11:07:02;;;;;;;3.20;1.70;;;19.00;99.90;;;;;;5054878;28;20462;-72
2023/08/08 11:09:28;;;;;;;7.57;1.83;;;18.90;99.90;;;;;;5054397;28;20036;-73
2023/08/08 11:11:54;;;;;;;2.78;1.50;;;19.00;99.90;;;;;;5054268;28;20021;-72
2023/08/08 11:14:21;;;;;;;2.83;1.70;;;19.10;99.90;;;;;;5052894;28;20056;-71
2023/08/08 11:16:49;;;;;;;9.82;1.65;;;19.40;99.90;;;;;;5054729;28;20028;-73
2023/08/08 11:19:16;;;;;;;3.92;1.77;;;19.50;99.90;;;;;;5054711;28;20033;-73
2023/08/08 11:21:43;;;;;;;4.53;1.70;;;19.20;99.90;;;;;;5054060;28;20377;-73
2023/08/08 11:24:10;;;;;;;3.97;1.75;;;19.20;99.90;;;;;;5054060;28;20024;-73
2023/08/08 11:26:37;;;;;;;4.03;1.52;;;19.40;99.90;;;;;;5054077;28;20035;-72
2023/08/08 11:29:07;;;;;;;3.28;1.50;;;19.50;99.90;;;;;;5054417;28;20092;-73
2023/08/08 11:31:37;;;;;;;3.83;1.45;;;19.60;99.90;;;;;;5053965;28;20513;-75
2023/08/08 11:34:04;;;;;;;5.03;1.60;;;19.80;99.90;;;;;;5053949;28;20017;-72
2023/08/08 11:36:34;;;;;;;3.53;1.48;;;20.10;99.90;;;;;;5054353;28;20028;-73
2023/08/08 11:39:07;;;;;;;3.78;1.42;;;20.20;99.90;;;;;;5054100;28;20035;-73
2023/08/08 11:41:36;;;;;;;4.43;1.77;;;20.20;99.90;;;;;;5053785;28;20411;-71
2023/08/08 11:44:08;;;;;;;2.20;1.30;;;20.00;99.90;;;;;;5053678;28;20082;-71
2023/08/08 11:46:34;;;;;;;3.85;1.50;;;20.10;99.90;;;;;;5053782;28;20112;-74
2023/08/08 11:49:06;;;;;;;6.05;1.70;;;19.90;99.90;;;;;;5052295;28;20132;-70
2023/08/08 11:51:34;;;;;;;2.17;1.40;;;19.70;99.90;;;;;;5053806;28;20025;-71
2023/08/08 11:54:02;;;;;;;4.10;1.63;;;19.70;99.90;;;;;;5053741;28;20513;-70
2023/08/08 11:56:28;;;;;;;2.78;1.60;;;19.70;99.90;;;;;;5053285;28;20476;-71
2023/08/08 11:58:55;;;;;;;3.10;1.60;;;20.10;99.90;;;;;;5054491;28;20037;-71
2023/08/08 12:01:27;;;;;;;3.97;1.48;;;20.40;99.90;;;;;;5053671;28;20354;-70
2023/08/08 12:03:53;;;;;;;1.98;1.45;;;20.40;99.90;;;;;;5054004;28;20093;-70
2023/08/08 12:06:19;;;;;;;3.55;1.35;;;20.10;99.90;;;;;;5053725;28;20112;-71
2023/08/08 12:08:46;;;;;;;6.15;1.90;;;20.00;99.90;;;;;;5053640;28;20457;-70
2023/08/08 12:11:14;;;;;;;3.08;1.40;;;20.00;99.90;;;;;;5053543;28;20017;-71
2023/08/08 12:13:42;;;;;;;3.08;1.40;;;20.20;99.90;;;;;;5053633;28;20118;-71
2023/08/08 12:16:13;;;;;;;3.58;1.48;;;20.50;99.90;;;;;;5053447;28;20415;-70
2023/08/08 12:18:40;;;;;;;4.18;1.45;;;21.00;99.90;;;;;;5054383;28;20037;-73
2023/08/08 12:21:07;;;;;;;3.13;1.20;;;21.20;99.90;;;;;;5053580;28;20111;-71
2023/08/08 12:23:34;;;;;;;3.03;1.15;;;21.10;99.90;;;;;;5052245;28;20021;-71
2023/08/08 12:26:02;;;;;;;3.45;1.40;;;21.20;99.90;;;;;;5055471;28;20079;-72
2023/08/08 12:28:29;;;;;;;4.50;1.30;;;21.30;99.90;;;;;;5057614;28;20023;-70
2023/08/08 12:30:55;;;;;;;4.05;1.50;;;21.00;99.90;;;;;;5057726;28;20502;-72
2023/08/08 12:33:20;;;;;;;2.22;1.10;;;21.10;99.90;;;;;;5055977;28;20052;-72
2023/08/08 12:35:47;;;;;;;4.40;1.30;;;21.30;99.90;;;;;;5057558;28;20056;-70
2023/08/08 12:38:14;;;;;;;5.03;1.33;;;21.30;99.90;;;;;;5057786;28;20025;-71
2023/08/08 12:40:39;;;;;;;5.00;1.40;;;21.10;99.90;;;;;;5057516;28;20029;-71
2023/08/08 12:43:05;;;;;;;9.32;1.38;;;20.80;99.90;;;;;;5058111;28;20075;-70
2023/08/08 12:45:31;;;;;;;5.68;1.27;;;21.00;99.90;;;;;;5057466;28;20025;-70